Time;durP1;ratioP1;P1;durP2;ratioP2;P2;SDS_P1;SDS_P2;PMS_P1;PMS_P2;Temp;Humidity;BMP_temperature;BMP_pressure;BME280_temperature;BME280_humidity;BME280_pressure;Samples;Min_cycle;Max_cycle;Signal;HPM_P1;HPM_P2
2021/07/17 00:01:32;;;;;;;39.42;11.07;;;15.60;99.90;;;;;;5079607;28;20142;-65
2021/07/17 00:03:58;;;;;;;28.60;9.90;;;15.50;99.90;;;;;;5081830;28;20044;-65
2021/07/17 00:06:23;;;;;;;30.67;9.55;;;15.50;99.90;;;;;;5079423;28;20043;-65
2021/07/17 00:08:50;;;;;;;23.05;8.38;;;15.50;99.90;;;;;;5078467;28;20044;-65
2021/07/17 00:11:17;;;;;;;30.67;8.77;;;15.50;99.90;;;;;;5079538;28;20045;-65
2021/07/17 00:13:43;;;;;;;39.65;11.00;;;15.50;99.90;;;;;;5079353;28;20048;-65
2021/07/17 00:16:09;;;;;;;31.38;9.13;;;15.50;99.90;;;;;;5078114;28;20172;-65
2021/07/17 00:18:35;;;;;;;30.83;10.10;;;15.40;99.90;;;;;;5077260;28;20043;-65
2021/07/17 00:21:00;;;;;;;37.75;10.13;;;15.40;99.90;;;;;;5081218;28;21121;-65
2021/07/17 00:23:26;;;;;;;28.75;9.65;;;15.40;99.90;;;;;;5079660;28;20105;-65
2021/07/17 00:25:57;;;;;;;33.45;9.75;;;15.40;99.90;;;;;;5079853;28;20036;-65
2021/07/17 00:28:23;;;;;;;30.20;8.65;;;15.40;99.90;;;;;;5075521;28;20067;-65
2021/07/17 00:30:49;;;;;;;35.80;9.68;;;15.40;99.90;;;;;;5079423;28;20482;-65
2021/07/17 00:33:14;;;;;;;28.23;9.07;;;15.30;99.90;;;;;;5061275;28;20492;-65
2021/07/17 00:35:40;;;;;;;34.72;8.90;;;15.30;99.90;;;;;;5080142;28;20036;-65
2021/07/17 00:38:06;;;;;;;25.20;8.82;;;15.30;99.90;;;;;;5077834;28;20224;-65
2021/07/17 00:40:35;;;;;;;36.08;10.38;;;15.30;99.90;;;;;;5076924;28;20039;-65
2021/07/17 00:43:02;;;;;;;28.95;9.40;;;15.30;99.90;;;;;;5078019;28;20483;-64
2021/07/17 00:45:27;;;;;;;29.23;9.05;;;15.30;99.90;;;;;;5077444;28;20047;-64
2021/07/17 00:47:53;;;;;;;31.50;10.07;;;15.30;99.90;;;;;;5078048;28;20739;-65
2021/07/17 00:50:21;;;;;;;37.22;11.63;;;15.30;99.90;;;;;;5077801;28;20908;-65
2021/07/17 00:52:47;;;;;;;28.98;8.35;;;15.30;99.90;;;;;;5081164;28;20055;-65
2021/07/17 00:55:13;;;;;;;29.42;9.00;;;15.20;99.90;;;;;;5079222;28;20032;-65
2021/07/17 00:57:41;;;;;;;30.40;9.40;;;15.20;99.90;;;;;;5077965;28;20040;-65
2021/07/17 01:00:08;;;;;;;33.75;10.07;;;15.20;99.90;;;;;;5077749;28;20101;-65
2021/07/17 01:02:38;;;;;;;31.20;9.48;;;15.20;99.90;;;;;;5078679;28;20043;-64
2021/07/17 01:05:06;;;;;;;35.83;9.93;;;15.10;99.90;;;;;;5078020;28;20044;-65
2021/07/17 01:07:33;;;;;;;35.10;9.23;;;15.10;99.90;;;;;;5078562;28;20036;-65
2021/07/17 01:09:58;;;;;;;26.38;8.10;;;15.10;99.90;;;;;;5077150;28;20109;-65
2021/07/17 01:12:24;;;;;;;26.08;9.32;;;15.10;99.90;;;;;;5079219;28;20561;-65
2021/07/17 01:14:50;;;;;;;29.77;8.38;;;15.10;99.90;;;;;;5077090;28;20040;-65
2021/07/17 01:17:15;;;;;;;27.45;8.07;;;15.00;99.90;;;;;;5077154;28;20122;-65
2021/07/17 01:19:41;;;;;;;22.55;8.15;;;15.10;99.90;;;;;;5076920;28;20040;-65
2021/07/17 01:22:07;;;;;;;26.58;9.43;;;15.10;99.90;;;;;;5079190;28;20536;-65
2021/07/17 01:24:34;;;;;;;24.60;8.52;;;15.00;99.90;;;;;;5078117;28;20054;-65
2021/07/17 01:26:59;;;;;;;35.05;9.90;;;15.00;99.90;;;;;;5079472;28;20044;-65
2021/07/17 01:29:25;;;;;;;29.10;7.95;;;15.10;99.90;;;;;;5074696;28;21494;-65
2021/07/17 01:31:51;;;;;;;30.27;8.57;;;15.00;99.90;;;;;;5076828;28;20029;-65
2021/07/17 01:34:17;;;;;;;29.92;8.45;;;15.00;99.90;;;;;;5079453;28;20043;-65
2021/07/17 01:36:45;;;;;;;24.23;10.10;;;15.00;99.90;;;;;;5078739;28;20079;-65
2021/07/17 01:39:11;;;;;;;25.48;7.50;;;15.00;99.90;;;;;;5073737;28;20039;-65
2021/07/17 01:41:37;;;;;;;31.67;8.70;;;15.00;99.90;;;;;;5078014;28;20048;-65
2021/07/17 01:44:04;;;;;;;25.77;7.82;;;15.00;99.90;;;;;;5078598;28;20089;-65
2021/07/17 01:46:31;;;;;;;31.10;8.13;;;15.00;99.90;;;;;;5076089;28;20043;-65
2021/07/17 01:48:57;;;;;;;20.98;8.25;;;15.00;99.90;;;;;;5076023;28;20739;-65
2021/07/17 01:51:24;;;;;;;26.60;8.50;;;15.00;99.90;;;;;;5077542;28;20047;-65
2021/07/17 01:53:55;;;;;;;27.88;10.27;;;14.90;99.90;;;;;;5080253;28;20044;-65
2021/07/17 01:56:22;;;;;;;27.92;8.60;;;15.00;99.90;;;;;;5077886;28;20051;-65
2021/07/17 01:58:49;;;;;;;26.15;8.88;;;14.90;99.90;;;;;;5077097;28;20102;-65
2021/07/17 02:01:15;;;;;;;27.05;8.68;;;14.90;99.90;;;;;;5076996;28;20393;-65
2021/07/17 02:03:45;;;;;;;25.27;8.13;;;14.90;99.90;;;;;;5080041;28;20048;-64
2021/07/17 02:06:11;;;;;;;26.13;7.90;;;14.90;99.90;;;;;;5076832;28;20044;-65
2021/07/17 02:08:38;;;;;;;29.20;9.85;;;14.90;99.90;;;;;;5074225;28;20040;-65
2021/07/17 02:11:05;;;;;;;24.67;8.20;;;14.90;99.90;;;;;;5078538;28;20413;-65
2021/07/17 02:13:30;;;;;;;30.05;8.30;;;14.90;99.90;;;;;;5078426;28;20043;-65
2021/07/17 02:15:57;;;;;;;24.15;8.60;;;14.90;99.90;;;;;;5076829;28;20051;-65
2021/07/17 02:18:23;;;;;;;25.23;9.57;;;14.90;99.90;;;;;;5076437;28;20055;-65
2021/07/17 02:20:50;;;;;;;22.30;7.95;;;14.90;99.90;;;;;;5079032;28;20032;-65
2021/07/17 02:23:15;;;;;;;29.42;9.50;;;14.90;99.90;;;;;;5077619;28;20052;-65
2021/07/17 02:25:41;;;;;;;26.30;8.60;;;14.90;99.90;;;;;;5084322;28;20036;-65
2021/07/17 02:28:07;;;;;;;35.70;8.75;;;14.90;99.90;;;;;;5081616;28;20034;-65
2021/07/17 02:30:33;;;;;;;24.10;7.65;;;14.90;99.90;;;;;;5079356;28;20404;-65
2021/07/17 02:32:59;;;;;;;25.40;7.70;;;14.90;99.90;;;;;;5082317;28;20055;-65
2021/07/17 02:35:25;;;;;;;28.63;9.20;;;14.90;99.90;;;;;;5082651;28;20073;-65
2021/07/17 02:37:51;;;;;;;29.73;9.40;;;14.90;99.90;;;;;;5082119;28;20140;-65
2021/07/17 02:40:17;;;;;;;22.35;8.05;;;14.90;99.90;;;;;;5086795;28;20036;-65
2021/07/17 02:42:44;;;;;;;33.33;7.85;;;14.90;99.90;;;;;;5086825;28;20398;-65
2021/07/17 02:45:11;;;;;;;28.90;8.85;;;14.80;99.90;;;;;;5087708;28;20043;-65
2021/07/17 02:47:36;;;;;;;28.15;9.70;;;14.80;99.90;;;;;;5087119;28;20043;-65
2021/07/17 02:50:03;;;;;;;24.45;8.25;;;14.80;99.90;;;;;;5084499;28;20043;-65
2021/07/17 02:52:29;;;;;;;20.85;8.05;;;14.80;99.90;;;;;;5087383;28;20040;-65
2021/07/17 02:54:55;;;;;;;22.52;7.28;;;14.80;99.90;;;;;;5087164;28;20165;-65
2021/07/17 02:57:21;;;;;;;26.40;7.68;;;14.80;99.90;;;;;;5089104;28;20111;-65
2021/07/17 02:59:46;;;;;;;19.15;7.28;;;14.80;99.90;;;;;;5084654;28;20044;-65
2021/07/17 03:02:12;;;;;;;23.42;7.28;;;14.80;99.90;;;;;;5088690;28;20098;-65
2021/07/17 03:04:37;;;;;;;30.98;8.60;;;14.80;99.90;;;;;;5086930;28;20040;-65
2021/07/17 03:07:03;;;;;;;18.20;6.80;;;14.70;99.90;;;;;;5087666;28;20036;-65
2021/07/17 03:09:29;;;;;;;24.40;7.03;;;14.80;99.90;;;;;;5083368;28;20040;-65
2021/07/17 03:11:55;;;;;;;17.52;7.22;;;14.80;99.90;;;;;;5087935;28;20070;-65
2021/07/17 03:14:21;;;;;;;23.27;8.05;;;14.70;99.90;;;;;;5086500;28;20044;-65
2021/07/17 03:16:47;;;;;;;29.20;7.93;;;14.70;99.90;;;;;;5087036;28;20035;-65
2021/07/17 03:19:12;;;;;;;25.65;8.68;;;14.70;99.90;;;;;;5085262;28;20413;-65
2021/07/17 03:21:39;;;;;;;19.17;6.32;;;14.70;99.90;;;;;;5088277;28;20044;-65
2021/07/17 03:24:05;;;;;;;23.20;6.68;;;14.70;99.90;;;;;;5088340;28;20040;-65
2021/07/17 03:26:31;;;;;;;19.67;6.55;;;14.70;99.90;;;;;;5086368;28;20036;-65
2021/07/17 03:28:57;;;;;;;26.20;8.18;;;14.70;99.90;;;;;;5085029;28;20035;-65
2021/07/17 03:31:28;;;;;;;22.75;7.38;;;14.70;99.90;;;;;;5088125;28;20050;-65
2021/07/17 03:33:54;;;;;;;20.85;7.00;;;14.70;99.90;;;;;;5086736;28;20043;-65
2021/07/17 03:36:20;;;;;;;21.30;7.25;;;14.70;99.90;;;;;;5088455;28;20114;-65
2021/07/17 03:38:46;;;;;;;22.20;6.80;;;14.80;99.90;;;;;;5083282;28;20830;-65
2021/07/17 03:41:12;;;;;;;19.52;8.00;;;14.80;99.90;;;;;;5088748;28;20093;-65
2021/07/17 03:43:38;;;;;;;20.70;6.80;;;14.80;99.90;;;;;;5089152;28;20496;-65
2021/07/17 03:46:03;;;;;;;29.05;7.20;;;14.80;99.90;;;;;;5085632;28;20040;-65
2021/07/17 03:48:32;;;;;;;22.98;6.68;;;14.80;99.90;;;;;;5082678;28;20130;-65
2021/07/17 03:50:57;;;;;;;22.35;6.82;;;14.80;99.90;;;;;;5088574;28;20482;-65
2021/07/17 03:53:23;;;;;;;29.33;5.90;;;14.90;99.90;;;;;;5087593;28;20059;-65
2021/07/17 03:55:49;;;;;;;28.27;7.88;;;14.90;99.90;;;;;;5085320;28;20481;-65
2021/07/17 03:58:14;;;;;;;24.13;6.95;;;14.90;99.90;;;;;;5085034;28;20032;-65
2021/07/17 04:00:40;;;;;;;23.95;7.93;;;15.00;99.90;;;;;;5084005;28;20048;-66
2021/07/17 04:03:06;;;;;;;22.58;6.93;;;15.00;99.90;;;;;;5087697;28;20403;-65
2021/07/17 04:05:32;;;;;;;21.27;6.93;;;15.10;99.90;;;;;;5086889;28;20507;-65
2021/07/17 04:07:58;;;;;;;23.45;6.47;;;15.10;99.90;;;;;;5080728;28;20148;-65
2021/07/17 04:10:23;;;;;;;29.33;7.72;;;15.20;99.90;;;;;;5084557;28;20047;-65
2021/07/17 04:12:49;;;;;;;24.98;7.25;;;15.20;99.90;;;;;;5086941;28;20047;-65
2021/07/17 04:15:15;;;;;;;26.63;6.85;;;15.30;99.90;;;;;;5071199;28;20055;-65
2021/07/17 04:17:41;;;;;;;27.17;6.80;;;15.40;99.90;;;;;;5084542;28;20047;-65
2021/07/17 04:20:08;;;;;;;23.38;7.00;;;15.50;99.90;;;;;;5087509;28;20482;-65
2021/07/17 04:22:35;;;;;;;22.45;6.70;;;15.60;99.90;;;;;;5082933;28;20028;-66
2021/07/17 04:25:01;;;;;;;23.83;6.43;;;15.70;99.90;;;;;;5084876;28;20047;-65
2021/07/17 04:27:26;;;;;;;22.05;6.30;;;15.80;99.90;;;;;;5087585;28;20039;-65
2021/07/17 04:29:52;;;;;;;23.95;5.65;;;16.00;99.90;;;;;;5084111;28;21166;-65
2021/07/17 04:32:18;;;;;;;23.65;6.50;;;16.00;99.90;;;;;;5086955;28;20040;-65
2021/07/17 04:34:43;;;;;;;25.02;6.20;;;16.10;99.90;;;;;;5083169;28;20488;-65
2021/07/17 04:37:14;;;;;;;22.40;6.85;;;16.10;99.90;;;;;;5068673;28;20038;-65
2021/07/17 04:39:39;;;;;;;14.60;5.60;;;16.20;99.90;;;;;;5081079;28;20727;-65
2021/07/17 04:42:05;;;;;;;18.13;5.57;;;16.20;99.90;;;;;;5087135;28;20055;-65
2021/07/17 04:44:31;;;;;;;19.92;5.97;;;16.30;99.90;;;;;;5087842;28;20040;-66
2021/07/17 04:46:57;;;;;;;15.13;4.97;;;16.40;99.90;;;;;;5084331;28;20040;-65
2021/07/17 04:49:22;;;;;;;15.73;5.43;;;16.40;99.90;;;;;;5079701;28;20040;-65
2021/07/17 04:51:48;;;;;;;21.45;6.57;;;16.50;99.90;;;;;;5085619;28;20040;-65
2021/07/17 04:54:14;;;;;;;24.38;5.72;;;16.50;99.90;;;;;;5086269;28;20620;-65
2021/07/17 04:56:39;;;;;;;18.33;5.45;;;16.50;99.90;;;;;;5085289;28;20048;-65
2021/07/17 04:59:05;;;;;;;19.42;5.75;;;16.60;99.90;;;;;;5085457;28;20504;-65
2021/07/17 05:01:31;;;;;;;18.20;5.57;;;16.70;99.90;;;;;;5083751;28;20508;-65
2021/07/17 05:03:56;;;;;;;23.77;7.20;;;16.80;99.90;;;;;;5084752;28;20032;-65
2021/07/17 05:06:22;;;;;;;24.73;5.30;;;16.90;99.90;;;;;;5086493;28;20040;-65
2021/07/17 05:08:48;;;;;;;18.00;5.85;;;17.00;99.90;;;;;;5079577;28;20036;-65
2021/07/17 05:11:13;;;;;;;21.65;6.53;;;17.10;99.90;;;;;;5084090;28;20032;-65
2021/07/17 05:13:39;;;;;;;20.73;5.50;;;17.10;99.90;;;;;;5086981;28;20361;-65
2021/07/17 05:16:05;;;;;;;24.25;5.80;;;17.20;99.90;;;;;;5083778;28;20111;-65
2021/07/17 05:18:32;;;;;;;22.42;5.47;;;17.30;99.90;;;;;;5080853;28;20066;-65
2021/07/17 05:20:58;;;;;;;12.65;4.13;;;17.40;99.90;;;;;;5084103;28;20484;-65
2021/07/17 05:23:24;;;;;;;15.77;4.53;;;17.70;99.90;;;;;;5061684;28;20071;-65
2021/07/17 05:25:51;;;;;;;19.23;4.50;;;17.90;99.90;;;;;;5080076;28;20056;-65
2021/07/17 05:28:17;;;;;;;15.40;4.13;;;18.10;99.90;;;;;;5074862;28;20041;-66
2021/07/17 05:30:44;;;;;;;18.05;5.68;;;18.50;99.90;;;;;;5074554;28;20044;-66
2021/07/17 05:33:10;;;;;;;16.88;4.25;;;19.00;99.90;;;;;;5078781;28;20393;-66
2021/07/17 05:35:36;;;;;;;14.85;3.42;;;19.70;99.90;;;;;;5076974;28;20975;-66
2021/07/17 05:38:03;;;;;;;15.73;4.78;;;20.30;99.90;;;;;;5074896;28;20044;-66
2021/07/17 05:40:28;;;;;;;12.75;3.10;;;21.00;99.90;;;;;;5076129;28;20036;-66
2021/07/17 05:42:55;;;;;;;13.50;3.30;;;22.00;99.90;;;;;;5074606;28;20039;-66
2021/07/17 05:45:21;;;;;;;16.10;4.03;;;22.80;99.90;;;;;;5079030;28;20044;-66
2021/07/17 05:47:47;;;;;;;16.33;3.80;;;23.30;99.90;;;;;;5074815;28;20043;-66
2021/07/17 05:50:13;;;;;;;10.43;3.17;;;23.50;99.90;;;;;;5083026;28;20469;-66
2021/07/17 05:52:39;;;;;;;20.08;4.53;;;23.50;99.90;;;;;;5085201;28;20146;-66
2021/07/17 05:55:05;;;;;;;22.83;4.22;;;23.50;99.90;;;;;;5085962;28;20051;-66
2021/07/17 05:57:34;;;;;;;10.30;3.20;;;23.50;99.90;;;;;;5085747;28;20558;-66
2021/07/17 05:59:59;;;;;;;13.95;3.58;;;23.50;99.90;;;;;;5081201;28;20032;-66
2021/07/17 06:02:26;;;;;;;16.73;4.05;;;23.50;99.90;;;;;;5085961;28;20043;-66
2021/07/17 06:04:53;;;;;;;14.68;2.70;;;23.60;99.90;;;;;;5086610;28;20032;-66
2021/07/17 06:07:20;;;;;;;15.38;3.65;;;23.70;99.90;;;;;;5084015;28;20055;-66
2021/07/17 06:09:46;;;;;;;15.25;3.30;;;23.80;99.90;;;;;;5079964;28;20036;-66
2021/07/17 06:12:11;;;;;;;9.98;3.10;;;23.70;99.90;;;;;;5083205;28;20090;-66
2021/07/17 06:14:38;;;;;;;14.90;3.63;;;23.80;99.90;;;;;;5082017;28;22189;-66
2021/07/17 06:17:04;;;;;;;16.30;2.83;;;23.80;99.90;;;;;;5077369;28;20047;-66
2021/07/17 06:19:30;;;;;;;12.40;3.13;;;23.80;99.90;;;;;;5076504;28;20101;-66
2021/07/17 06:21:56;;;;;;;11.68;2.83;;;23.80;99.90;;;;;;5078842;28;20043;-66
2021/07/17 06:24:22;;;;;;;14.82;3.25;;;24.00;99.90;;;;;;5076127;28;20048;-66
2021/07/17 06:26:48;;;;;;;15.73;3.55;;;24.10;99.90;;;;;;5077970;28;20062;-67
2021/07/17 06:29:13;;;;;;;9.27;2.75;;;24.20;99.90;;;;;;5074512;28;20036;-67
2021/07/17 06:31:39;;;;;;;13.80;3.20;;;24.20;99.90;;;;;;5076949;28;20040;-67
2021/07/17 06:34:05;;;;;;;7.43;2.78;;;24.20;99.90;;;;;;5078551;28;20592;-67
2021/07/17 06:36:31;;;;;;;8.52;2.90;;;24.10;99.90;;;;;;5079868;28;20032;-67
2021/07/17 06:38:57;;;;;;;15.35;3.30;;;24.20;99.90;;;;;;5077852;28;20040;-66
2021/07/17 06:41:23;;;;;;;15.52;3.15;;;24.20;99.90;;;;;;5076924;28;20487;-67
2021/07/17 06:43:49;;;;;;;77.00;65.38;;;24.30;99.90;;;;;;5077640;28;20047;-67
2021/07/17 06:46:15;;;;;;;10.45;4.03;;;24.40;99.90;;;;;;5077448;28;20044;-67
2021/07/17 06:48:41;;;;;;;8.85;2.65;;;24.60;99.90;;;;;;5072614;28;21323;-67
2021/07/17 06:51:08;;;;;;;12.48;5.47;;;24.60;99.90;;;;;;5083075;28;20098;-66
2021/07/17 06:53:35;;;;;;;56.30;35.00;;;24.50;99.90;;;;;;5083063;28;20051;-67
2021/07/17 06:56:02;;;;;;;36.72;15.60;;;24.60;99.90;;;;;;5086460;28;20143;-66
2021/07/17 06:58:28;;;;;;;10.48;3.55;;;24.60;99.90;;;;;;5078741;28;20549;-66
2021/07/17 07:00:53;;;;;;;11.20;3.03;;;24.60;99.90;;;;;;5080232;28;20048;-66
2021/07/17 07:03:20;;;;;;;25.45;7.75;;;24.70;99.90;;;;;;5081314;28;20059;-66
2021/07/17 07:05:45;;;;;;;11.00;2.72;;;24.70;99.90;;;;;;5080527;28;20054;-66
2021/07/17 07:08:11;;;;;;;11.48;2.90;;;24.70;99.80;;;;;;5083207;28;20036;-66
2021/07/17 07:10:37;;;;;;;19.55;6.00;;;24.70;99.90;;;;;;5079894;28;20032;-67
2021/07/17 07:13:14;;;;;;;13.48;4.00;;;24.80;99.90;;;;;;5084213;28;20040;-67
2021/07/17 07:15:40;;;;;;;10.18;3.35;;;24.90;99.90;;;;;;5083608;28;20035;-67
2021/07/17 07:18:06;;;;;;;7.68;2.10;;;25.00;99.60;;;;;;5083855;28;20067;-67
2021/07/17 07:20:33;;;;;;;10.52;2.80;;;25.10;99.00;;;;;;5096584;28;20101;-67
2021/07/17 07:22:59;;;;;;;8.82;2.53;;;25.20;98.70;;;;;;5080210;28;20035;-67
2021/07/17 07:25:25;;;;;;;7.90;2.10;;;25.20;98.50;;;;;;5080606;28;20544;-66
2021/07/17 07:27:52;;;;;;;7.13;1.90;;;25.10;97.90;;;;;;5080823;28;20044;-67
2021/07/17 07:30:18;;;;;;;8.23;2.17;;;25.10;97.90;;;;;;5079309;28;20208;-67
2021/07/17 07:32:44;;;;;;;9.18;2.30;;;25.20;98.70;;;;;;5078407;28;20036;-67
2021/07/17 07:35:10;;;;;;;12.70;2.42;;;25.40;98.10;;;;;;5080440;28;20047;-67
2021/07/17 07:37:36;;;;;;;4.85;1.88;;;25.40;97.80;;;;;;5078399;28;21059;-67
2021/07/17 07:40:04;;;;;;;4.70;2.15;;;25.40;96.00;;;;;;5078074;28;20122;-68
2021/07/17 07:42:29;;;;;;;8.52;2.85;;;25.00;94.70;;;;;;5079774;28;20036;-68
2021/07/17 07:44:55;;;;;;;15.95;4.88;;;24.90;96.00;;;;;;5078967;28;20496;-68
2021/07/17 07:47:23;;;;;;;16.02;9.55;;;24.90;97.20;;;;;;5079245;28;20044;-69
2021/07/17 07:49:52;;;;;;;27.80;16.50;;;25.10;97.90;;;;;;5078146;28;20147;-69
2021/07/17 07:52:18;;;;;;;15.80;7.63;;;25.30;97.50;;;;;;5080521;28;20044;-69
2021/07/17 07:54:45;;;;;;;24.85;10.70;;;25.50;97.80;;;;;;5079657;28;20040;-70
2021/07/17 07:57:11;;;;;;;14.77;6.78;;;25.50;97.50;;;;;;5081447;28;20039;-70
2021/07/17 07:59:38;;;;;;;25.05;15.15;;;25.70;96.70;;;;;;5077057;28;20796;-70
2021/07/17 08:02:04;;;;;;;19.25;13.15;;;25.80;96.70;;;;;;5082014;28;20055;-70
2021/07/17 08:04:29;;;;;;;9.20;4.50;;;25.90;96.90;;;;;;5080663;28;20040;-70
2021/07/17 08:06:55;;;;;;;17.45;12.55;;;26.00;96.90;;;;;;5080565;28;20047;-70
2021/07/17 08:09:21;;;;;;;11.90;3.75;;;26.10;96.70;;;;;;5078837;28;20402;-67
2021/07/17 08:11:47;;;;;;;5.93;2.88;;;25.90;95.40;;;;;;5081358;28;20389;-68
2021/07/17 08:14:13;;;;;;;8.93;4.68;;;25.90;95.70;;;;;;5080847;28;20695;-72
2021/07/17 08:16:38;;;;;;;7.85;5.05;;;25.90;95.70;;;;;;5079993;28;20188;-70
2021/07/17 08:19:04;;;;;;;20.58;17.83;;;25.60;94.70;;;;;;5078632;28;20040;-69
2021/07/17 08:21:30;;;;;;;10.30;4.88;;;25.70;96.00;;;;;;5082125;28;20064;-70
2021/07/17 08:23:55;;;;;;;9.55;5.13;;;25.70;95.80;;;;;;5080371;28;20700;-70
2021/07/17 08:26:22;;;;;;;15.88;11.43;;;25.80;96.40;;;;;;5080508;28;20062;-70
2021/07/17 08:28:48;;;;;;;90.78;72.50;;;25.90;96.60;;;;;;5078043;28;20682;-68
2021/07/17 08:31:13;;;;;;;25.02;15.15;;;25.90;95.90;;;;;;5080669;28;20105;-70
2021/07/17 08:33:39;;;;;;;81.20;67.60;;;25.80;95.00;;;;;;5079507;28;20039;-70
2021/07/17 08:36:05;;;;;;;244.73;199.48;;;25.80;96.40;;;;;;5078872;28;20119;-70
2021/07/17 08:38:31;;;;;;;11.90;8.10;;;26.00;96.90;;;;;;5076840;28;20170;-67
2021/07/17 08:40:58;;;;;;;12.40;5.88;;;26.10;96.90;;;;;;5080120;28;20154;-68
2021/07/17 08:43:24;;;;;;;28.70;7.80;;;26.30;96.50;;;;;;5080084;28;20079;-68
2021/07/17 08:45:51;;;;;;;12.02;4.25;;;26.40;96.20;;;;;;5078036;28;20152;-69
2021/07/17 08:48:20;;;;;;;7.75;3.13;;;26.60;95.50;;;;;;5080118;28;20052;-68
2021/07/17 08:50:47;;;;;;;10.40;3.42;;;26.60;95.00;;;;;;5078265;28;20055;-68
2021/07/17 08:53:16;;;;;;;17.30;8.93;;;26.60;94.30;;;;;;5081229;28;20036;-68
2021/07/17 08:55:41;;;;;;;16.98;2.90;;;26.70;95.10;;;;;;5079390;28;20058;-68
2021/07/17 08:58:07;;;;;;;11.48;5.70;;;26.80;95.50;;;;;;5078345;28;20040;-68
2021/07/17 09:00:35;;;;;;;6.35;2.83;;;26.80;95.40;;;;;;5078109;28;20544;-67
2021/07/17 09:03:04;;;;;;;5.35;3.35;;;26.70;95.10;;;;;;5080353;28;20048;-67
2021/07/17 09:05:35;;;;;;;13.38;6.82;;;26.70;94.70;;;;;;5079893;28;20040;-67
2021/07/17 09:08:03;;;;;;;7.43;2.55;;;26.70;94.50;;;;;;5078627;28;20040;-67
2021/07/17 09:10:30;;;;;;;7.93;2.58;;;26.60;94.00;;;;;;5078642;28;20131;-67
2021/07/17 09:13:25;;;;;;;7.32;2.35;;;26.70;94.90;;;;;;5080692;28;20040;-67
2021/07/17 09:15:50;;;;;;;4.55;2.10;;;26.70;94.00;;;;;;5079873;28;20082;-67
2021/07/17 09:18:31;;;;;;;6.60;2.55;;;26.60;94.30;;;;;;5079122;28;20055;-67
2021/07/17 09:21:06;;;;;;;7.60;2.80;;;26.80;94.90;;;;;;5082634;28;20036;-67
2021/07/17 09:23:34;;;;;;;;;;;26.80;94.90;;;;;;5080982;28;20036;-67
2021/07/17 09:26:09;;;;;;;8.10;2.75;;;26.90;95.30;;;;;;5078352;28;20141;-67
2021/07/17 09:28:35;;;;;;;6.00;2.88;;;27.00;95.10;;;;;;5075867;28;20055;-67
2021/07/17 09:31:01;;;;;;;6.85;2.45;;;27.10;94.60;;;;;;5078931;28;20041;-67
2021/07/17 09:33:27;;;;;;;5.65;1.88;;;27.10;94.10;;;;;;5077973;28;20515;-67
2021/07/17 09:35:55;;;;;;;4.30;1.42;;;27.10;93.40;;;;;;5082407;28;20044;-67
2021/07/17 09:38:22;;;;;;;4.40;1.83;;;27.10;92.90;;;;;;5077191;28;20040;-69
2021/07/17 09:40:51;;;;;;;6.28;1.92;;;26.90;92.00;;;;;;5079173;28;20039;-69
2021/07/17 09:43:34;;;;;;;5.28;2.22;;;26.80;92.70;;;;;;5078434;28;20044;-70
2021/07/17 09:46:13;;;;;;;9.25;2.70;;;26.80;94.50;;;;;;5081440;28;20032;-70
2021/07/17 09:48:45;;;;;;;7.20;1.90;;;26.90;94.50;;;;;;5075867;28;20785;-70
2021/07/17 09:51:20;;;;;;;10.05;2.72;;;26.90;94.50;;;;;;5077289;28;20055;-70
2021/07/17 09:53:49;;;;;;;6.22;1.85;;;27.00;93.80;;;;;;5079469;28;20148;-70
2021/07/17 09:56:23;;;;;;;5.53;1.77;;;27.00;93.70;;;;;;5079040;28;20111;-70
2021/07/17 09:58:50;;;;;;;5.03;1.55;;;27.00;93.00;;;;;;5075032;28;20431;-70
2021/07/17 10:01:21;;;;;;;6.22;1.55;;;27.00;93.20;;;;;;5078628;28;20040;-70
2021/07/17 10:03:48;;;;;;;10.77;3.08;;;27.00;93.30;;;;;;5079316;28;20036;-70
2021/07/17 10:06:59;;;;;;;6.72;1.90;;;26.90;92.90;;;;;;5079640;28;20040;-70
2021/07/17 10:09:33;;;;;;;7.43;1.65;;;26.80;92.50;;;;;;5069751;28;20047;-68
2021/07/17 10:11:59;;;;;;;3.40;1.30;;;26.80;92.00;;;;;;5075927;28;20181;-72
2021/07/17 10:14:38;;;;;;;4.45;1.48;;;26.80;92.00;;;;;;5076676;28;20146;-72
2021/07/17 10:17:11;;;;;;;5.68;1.60;;;26.70;92.00;;;;;;5076460;28;20044;-68
2021/07/17 10:19:38;;;;;;;5.00;1.35;;;26.50;91.50;;;;;;5080369;28;20128;-72
2021/07/17 10:22:05;;;;;;;8.32;1.60;;;26.40;92.40;;;;;;5079224;28;20040;-70
2021/07/17 10:24:31;;;;;;;7.93;2.55;;;26.30;92.20;;;;;;5077318;28;20047;-69
2021/07/17 10:26:58;;;;;;;7.80;1.40;;;26.50;94.50;;;;;;5078327;28;20051;-69
2021/07/17 10:29:26;;;;;;;8.63;1.88;;;26.50;93.70;;;;;;5075918;28;20032;-74
2021/07/17 10:31:53;;;;;;;12.50;3.80;;;26.40;93.20;;;;;;5078294;28;20032;-70
2021/07/17 10:34:20;;;;;;;11.85;2.75;;;26.40;93.50;;;;;;5076422;28;20397;-72
2021/07/17 10:37:02;;;;;;;9.82;1.80;;;26.30;92.80;;;;;;5078364;28;20047;-74
2021/07/17 10:39:42;;;;;;;13.50;5.00;;;26.30;92.60;;;;;;5073309;28;20047;-69
2021/07/17 10:42:20;;;;;;;5.65;2.78;;;26.20;93.60;;;;;;5078684;28;20101;-70
2021/07/17 10:44:51;;;;;;;4.68;1.88;;;26.20;94.50;;;;;;5079182;28;20043;-70
2021/07/17 10:47:18;;;;;;;338.63;276.83;;;26.20;93.50;;;;;;5078477;28;20052;-70
2021/07/17 10:49:46;;;;;;;434.20;394.00;;;26.20;93.30;;;;;;5076741;28;20084;-69
2021/07/17 10:52:12;;;;;;;216.75;196.65;;;26.10;93.50;;;;;;5077293;28;20055;-70
2021/07/17 10:54:39;;;;;;;74.65;67.10;;;26.00;93.10;;;;;;5075212;28;20427;-69
2021/07/17 10:57:06;;;;;;;548.42;498.23;;;26.00;94.10;;;;;;5079264;28;20463;-70
2021/07/17 10:59:31;;;;;;;93.85;85.32;;;25.80;93.50;;;;;;5076908;28;20133;-69
2021/07/17 11:01:58;;;;;;;13.68;12.35;;;25.80;93.70;;;;;;5083139;28;20069;-69
2021/07/17 11:04:47;;;;;;;4.50;1.63;;;25.70;91.70;;;;;;5086258;28;20040;-69
2021/07/17 11:07:18;;;;;;;3.17;2.40;;;25.50;91.60;;;;;;5084431;28;20035;-68
2021/07/17 11:10:09;;;;;;;17.70;14.45;;;25.30;90.90;;;;;;5083618;28;20032;-69
2021/07/17 11:12:48;;;;;;;7.10;5.43;;;25.10;91.00;;;;;;5086795;28;20062;-68
2021/07/17 11:15:17;;;;;;;3.83;2.03;;;25.00;91.80;;;;;;5067612;28;20397;-69
2021/07/17 11:17:44;;;;;;;13.52;7.35;;;25.00;93.00;;;;;;5085588;28;20512;-68
2021/07/17 11:20:22;;;;;;;10.20;3.75;;;25.00;94.80;;;;;;5086098;28;20040;-68
2021/07/17 11:23:03;;;;;;;3.22;1.00;;;25.20;95.60;;;;;;5087764;28;20107;-69
2021/07/17 11:25:29;;;;;;;28.73;26.33;;;25.40;92.60;;;;;;5081926;28;20047;-69
2021/07/17 11:27:55;;;;;;;6.35;4.78;;;25.30;92.40;;;;;;5086177;28;20146;-68
2021/07/17 11:30:22;;;;;;;2.55;0.95;;;25.40;93.40;;;;;;5085808;28;20111;-69
2021/07/17 11:33:06;;;;;;;6.22;1.30;;;25.40;91.80;;;;;;5087780;28;20190;-68
2021/07/17 11:35:40;;;;;;;1.98;0.77;;;25.50;92.70;;;;;;5088799;28;20036;-69
2021/07/17 11:38:07;;;;;;;1.92;0.95;;;25.50;92.30;;;;;;5085352;28;20043;-68
2021/07/17 11:40:34;;;;;;;3.40;0.77;;;25.50;91.60;;;;;;5085759;28;20533;-68
2021/07/17 11:43:05;;;;;;;3.00;1.45;;;25.40;91.30;;;;;;5087353;28;20093;-69
2021/07/17 11:45:31;;;;;;;5.30;0.90;;;25.40;93.10;;;;;;5086456;28;20066;-68
2021/07/17 11:48:07;;;;;;;3.85;1.40;;;25.40;90.10;;;;;;5086012;28;20630;-68
2021/07/17 11:50:34;;;;;;;5.45;1.77;;;25.30;91.80;;;;;;5083992;28;20048;-68
2021/07/17 11:52:59;;;;;;;8.85;6.40;;;25.30;91.60;;;;;;5087303;28;20509;-68
2021/07/17 11:55:25;;;;;;;71.43;64.78;;;25.10;91.50;;;;;;5086562;28;20039;-68
2021/07/17 11:57:51;;;;;;;35.53;32.17;;;25.10;92.70;;;;;;5086494;28;20111;-69
2021/07/17 12:00:20;;;;;;;4.63;2.08;;;25.10;93.50;;;;;;5085273;28;20115;-68
2021/07/17 12:02:54;;;;;;;69.18;63.35;;;25.20;91.50;;;;;;5087808;28;20517;-68
2021/07/17 12:05:22;;;;;;;19.80;18.00;;;25.10;91.80;;;;;;5088268;28;20044;-68
2021/07/17 12:07:48;;;;;;;25.23;22.73;;;25.00;93.40;;;;;;5087313;28;20086;-67
2021/07/17 12:10:15;;;;;;;33.15;30.30;;;25.20;95.00;;;;;;5086678;28;20036;-68
2021/07/17 12:12:52;;;;;;;3.03;2.72;;;25.20;93.70;;;;;;5088994;28;20123;-68
2021/07/17 12:15:28;;;;;;;4.30;1.98;;;25.10;94.20;;;;;;5087388;28;20111;-68
2021/07/17 12:18:06;;;;;;;4.90;3.03;;;25.10;92.70;;;;;;5085010;28;20052;-68
2021/07/17 12:20:41;;;;;;;2.97;1.67;;;25.00;93.30;;;;;;5086012;28;20095;-68
2021/07/17 12:23:08;;;;;;;8.63;7.80;;;24.90;92.50;;;;;;5088385;28;20044;-68
2021/07/17 12:25:38;;;;;;;2.53;1.10;;;24.80;93.80;;;;;;5087626;28;20044;-68
2021/07/17 12:28:08;;;;;;;7.07;3.80;;;24.80;94.90;;;;;;5085638;28;20044;-67
2021/07/17 12:30:58;;;;;;;4.22;1.80;;;24.90;93.70;;;;;;5084794;28;20440;-68
2021/07/17 12:33:33;;;;;;;3.63;1.15;;;25.00;92.70;;;;;;5077702;28;20052;-68
2021/07/17 12:36:13;;;;;;;4.55;0.95;;;25.00;94.80;;;;;;5086856;28;20034;-68
2021/07/17 12:38:46;;;;;;;4.50;0.90;;;24.90;95.10;;;;;;5082911;28;20736;-68
2021/07/17 12:41:16;;;;;;;3.30;1.30;;;25.00;95.10;;;;;;5088448;28;20044;-68